Time;durP1;ratioP1;P1;durP2;ratioP2;P2;SDS_P1;SDS_P2;PMS_P1;PMS_P2;Temp;Humidity;BMP_temperature;BMP_pressure;BME280_temperature;BME280_humidity;BME280_pressure;Samples;Min_cycle;Max_cycle;Signal;HPM_P1;HPM_P2
2022/12/19 00:01:18;;;;;;;68.90;34.83;;;;;;;-0.18;100.00;101703.06;5022770;28;20056;-56
2022/12/19 00:03:48;;;;;;;67.30;34.23;;;;;;;-0.14;100.00;101698.53;5019058;28;20693;-57
2022/12/19 00:06:15;;;;;;;72.90;34.73;;;;;;;-0.16;100.00;101696.00;5025783;28;20447;-57
2022/12/19 00:08:42;;;;;;;71.83;34.07;;;;;;;-0.15;100.00;101700.28;5022819;28;20030;-56
2022/12/19 00:11:08;;;;;;;66.63;33.93;;;;;;;-0.14;100.00;101683.72;5024403;28;20055;-57
2022/12/19 00:13:34;;;;;;;68.23;33.47;;;;;;;-0.10;100.00;101687.03;5014729;28;20533;-55
2022/12/19 00:16:06;;;;;;;77.77;36.83;;;;;;;-0.07;100.00;101691.28;5024012;28;20125;-56
2022/12/19 00:18:31;;;;;;;68.47;33.13;;;;;;;-0.06;100.00;101674.69;5020374;28;20060;-57
2022/12/19 00:21:02;;;;;;;69.47;34.07;;;;;;;-0.08;100.00;101686.97;5021756;28;20042;-57
2022/12/19 00:23:31;;;;;;;66.10;33.13;;;;;;;-0.06;100.00;101685.13;5025933;28;21608;-56
2022/12/19 00:26:15;;;;;;;71.30;35.77;;;;;;;-0.04;100.00;101685.94;5023754;28;20039;-57
2022/12/19 00:28:42;;;;;;;67.57;33.90;;;;;;;-0.06;100.00;101670.34;5026322;28;20116;-57
2022/12/19 00:31:08;;;;;;;72.23;34.87;;;;;;;-0.03;100.00;101675.44;5022446;28;20084;-58
2022/12/19 00:33:33;;;;;;;67.20;33.97;;;;;;;-0.03;100.00;101664.16;5018224;28;20072;-58
2022/12/19 00:36:08;;;;;;;76.10;35.80;;;;;;;-0.02;100.00;101671.03;5025830;28;20049;-56
2022/12/19 00:38:34;;;;;;;66.73;34.03;;;;;;;0.00;100.00;101669.22;5026357;28;20044;-56
2022/12/19 00:41:10;;;;;;;70.60;33.90;;;;;;;0.02;100.00;101646.53;5020748;28;20041;-56
2022/12/19 00:43:36;;;;;;;69.53;34.57;;;;;;;0.08;100.00;101659.28;5021900;28;20069;-55
2022/12/19 00:46:03;;;;;;;72.73;35.20;;;;;;;0.10;100.00;101654.81;5017719;28;20056;-54
2022/12/19 00:48:29;;;;;;;65.13;34.87;;;;;;;0.13;100.00;101659.91;5029450;28;20029;-54
2022/12/19 00:50:59;;;;;;;67.33;35.77;;;;;;;0.17;100.00;101658.00;5025724;28;20466;-57
2022/12/19 00:53:24;;;;;;;71.93;34.50;;;;;;;0.22;100.00;101662.97;5016235;28;20477;-57
2022/12/19 00:55:50;;;;;;;72.33;35.20;;;;;;;0.22;100.00;101652.53;5028671;28;20068;-57
2022/12/19 00:58:15;;;;;;;67.50;33.50;;;;;;;0.23;100.00;101646.41;5022727;28;20111;-57
2022/12/19 01:00:40;;;;;;;65.63;34.03;;;;;;;0.21;100.00;101630.00;5028182;28;20040;-56
2022/12/19 01:03:05;;;;;;;63.73;33.67;;;;;;;0.23;100.00;101617.72;5020560;28;20044;-57
2022/12/19 01:05:31;;;;;;;67.03;34.33;;;;;;;0.22;100.00;101636.88;5019407;28;20072;-56
2022/12/19 01:07:56;;;;;;;66.20;32.80;;;;;;;0.24;100.00;101640.25;5025192;28;20029;-57
2022/12/19 01:10:21;;;;;;;71.03;34.80;;;;;;;0.26;100.00;101639.25;5024210;28;20034;-55
2022/12/19 01:12:46;;;;;;;69.43;34.17;;;;;;;0.28;100.00;101636.59;5012181;28;20370;-55
2022/12/19 01:15:19;;;;;;;65.33;33.27;;;;;;;0.31;100.00;101631.25;5027728;28;20032;-56
2022/12/19 01:17:45;;;;;;;70.28;35.28;;;;;;;0.31;100.00;101620.81;5024381;28;20025;-56
2022/12/19 01:20:13;;;;;;;71.40;33.77;;;;;;;0.28;100.00;101615.72;5020156;28;20033;-56
2022/12/19 01:22:39;;;;;;;66.50;34.67;;;;;;;0.35;100.00;101617.09;5026448;28;20025;-56
2022/12/19 01:25:05;;;;;;;68.43;31.77;;;;;;;0.36;100.00;101610.13;5019722;28;20022;-56
2022/12/19 01:27:30;;;;;;;70.30;34.57;;;;;;;0.36;100.00;101603.16;5031018;28;20029;-57
2022/12/19 01:29:56;;;;;;;62.77;32.97;;;;;;;0.40;100.00;101604.69;5025476;28;20059;-57
2022/12/19 01:32:22;;;;;;;63.83;33.63;;;;;;;0.43;100.00;101608.06;5021039;28;20135;-57
2022/12/19 01:34:47;;;;;;;63.00;32.17;;;;;;;0.42;100.00;101601.13;5023141;28;20112;-58
2022/12/19 01:37:16;;;;;;;64.07;32.67;;;;;;;0.44;100.00;101609.75;5027929;28;20148;-57
2022/12/19 01:39:41;;;;;;;65.07;32.40;;;;;;;0.46;100.00;101607.91;5025756;28;20030;-57
2022/12/19 01:42:24;;;;;;;64.73;32.77;;;;;;;0.49;100.00;101607.78;5028044;28;20063;-57
2022/12/19 01:45:08;;;;;;;65.17;31.70;;;;;;;0.48;100.00;101611.28;5016738;28;20059;-57
2022/12/19 01:47:50;;;;;;;59.80;30.47;;;;;;;0.49;100.00;101592.09;5023232;28;20061;-56
2022/12/19 01:50:22;;;;;;;61.83;31.63;;;;;;;0.49;100.00;101610.38;5020398;28;20497;-57
2022/12/19 01:52:47;;;;;;;59.37;30.73;;;;;;;0.48;100.00;101603.44;5025017;28;20112;-56
2022/12/19 01:55:13;;;;;;;68.13;32.90;;;;;;;0.48;100.00;101601.69;5017061;28;20108;-55
2022/12/19 01:57:39;;;;;;;63.87;32.87;;;;;;;0.50;100.00;101596.41;5024411;28;20516;-56
2022/12/19 02:00:08;;;;;;;62.60;33.70;;;;;;;0.49;100.00;101594.72;5017205;28;20033;-57
2022/12/19 02:02:42;;;;;;;64.30;31.73;;;;;;;0.46;100.00;101598.31;5022205;28;20083;-56
2022/12/19 02:05:07;;;;;;;68.47;33.60;;;;;;;0.48;100.00;101590.41;5029813;28;20060;-56
2022/12/19 02:07:34;;;;;;;67.57;32.03;;;;;;;0.46;100.00;101590.50;5023348;28;20033;-56
2022/12/19 02:10:00;;;;;;;67.33;32.93;;;;;;;0.48;100.00;101587.78;5029137;28;20083;-56
2022/12/19 02:12:28;;;;;;;63.73;32.70;;;;;;;0.46;100.00;101582.66;5024772;28;20422;-56
2022/12/19 02:14:55;;;;;;;68.73;33.10;;;;;;;0.47;100.00;101567.84;5031224;28;20060;-57
2022/12/19 02:17:42;;;;;;;68.73;32.97;;;;;;;0.47;100.00;101562.63;5034728;28;20049;-58
2022/12/19 02:20:57;;;;;;;73.13;34.20;;;;;;;0.43;100.00;101548.06;5027754;28;20080;-57
2022/12/19 02:23:55;;;;;;;71.77;34.50;;;;;;;0.50;100.00;101557.25;5026737;28;20104;-57
2022/12/19 02:26:50;;;;;;;71.50;33.67;;;;;;;0.52;100.00;101555.41;5023060;28;20412;-57
2022/12/19 02:29:53;;;;;;;68.77;33.27;;;;;;;0.53;100.00;101546.66;5019418;28;20029;-56
2022/12/19 02:32:47;;;;;;;76.53;35.63;;;;;;;0.58;100.00;101544.66;5028630;28;20032;-57
2022/12/19 02:35:24;;;;;;;72.77;33.93;;;;;;;0.61;100.00;101544.50;5023152;28;20091;-56
2022/12/19 02:37:59;;;;;;;73.47;34.17;;;;;;;0.60;100.00;101537.56;5028392;28;20067;-56
2022/12/19 02:40:29;;;;;;;75.33;33.93;;;;;;;0.65;100.00;101537.34;5027775;28;20127;-56
2022/12/19 02:43:01;;;;;;;71.70;34.30;;;;;;;0.71;100.00;101533.56;5015583;28;20469;-57
2022/12/19 02:45:32;;;;;;;73.07;32.47;;;;;;;0.72;100.00;101527.41;5023174;28;20477;-57
2022/12/19 02:47:59;;;;;;;81.97;35.47;;;;;;;0.77;100.00;101528.03;5026483;28;20056;-57
2022/12/19 02:50:25;;;;;;;77.90;34.00;;;;;;;0.82;100.00;101510.34;5016626;28;20022;-58
2022/12/19 02:52:50;;;;;;;81.77;35.40;;;;;;;0.87;100.00;101513.56;5032801;28;20065;-57
2022/12/19 02:55:22;;;;;;;84.67;35.40;;;;;;;0.94;100.00;101509.69;5031847;28;20101;-56
2022/12/19 02:58:22;;;;;;;93.97;38.10;;;;;;;1.06;100.00;101507.34;5029137;28;20042;-57
2022/12/19 03:00:58;;;;;;;86.20;34.63;;;;;;;1.11;100.00;101505.34;5020431;28;20045;-56
2022/12/19 03:04:05;;;;;;;81.73;34.50;;;;;;;1.13;100.00;101508.72;5030551;28;20033;-56
2022/12/19 03:06:47;;;;;;;71.57;32.43;;;;;;;1.14;100.00;101505.16;5018285;28;20037;-57
2022/12/19 03:09:26;;;;;;;70.97;32.63;;;;;;;1.13;100.00;101506.09;5015899;28;20100;-58
2022/12/19 03:12:01;;;;;;;75.57;32.70;;;;;;;1.15;100.00;101506.03;5029455;28;20113;-57
2022/12/19 03:14:29;;;;;;;72.23;31.93;;;;;;;1.18;100.00;101504.06;5026892;28;20470;-56
2022/12/19 03:16:54;;;;;;;78.63;32.30;;;;;;;1.24;100.00;101509.91;5029253;28;20038;-57
2022/12/19 03:19:20;;;;;;;75.87;31.43;;;;;;;1.30;100.00;101494.75;5024042;28;20030;-56
2022/12/19 03:21:47;;;;;;;69.90;31.43;;;;;;;1.34;100.00;101500.63;5024461;28;20541;-56
2022/12/19 03:24:14;;;;;;;77.90;31.53;;;;;;;1.47;100.00;101495.56;5025535;28;20087;-58
2022/12/19 03:26:53;;;;;;;71.27;31.13;;;;;;;1.47;100.00;101496.41;5023669;28;20473;-57
2022/12/19 03:29:31;;;;;;;76.53;30.80;;;;;;;1.53;100.00;101499.63;5026872;28;20042;-58
2022/12/19 03:31:59;;;;;;;69.80;30.37;;;;;;;1.55;100.00;101502.97;5017256;28;20030;-57
2022/12/19 03:34:33;;;;;;;70.63;29.37;;;;;;;1.58;100.00;101497.59;5027540;28;20037;-58
2022/12/19 03:37:01;;;;;;;69.00;28.90;;;;;;;1.64;100.00;101489.41;5027428;28;20489;-57
2022/12/19 03:39:30;;;;;;;71.23;28.97;;;;;;;1.73;100.00;101488.03;5022203;28;20087;-57
2022/12/19 03:44:42;;;;;;;70.60;28.97;;;;;;;1.91;100.00;101491.34;5022525;28;20040;-58
2022/12/19 03:47:16;;;;;;;69.47;28.27;;;;;;;1.93;100.00;101491.25;5030771;28;20087;-58
2022/12/19 03:49:41;;;;;;;64.33;28.20;;;;;;;1.99;100.00;101493.53;5018022;28;20072;-57
2022/12/19 03:52:24;;;;;;;62.47;26.80;;;;;;;2.01;100.00;101487.28;5028270;28;20562;-57
2022/12/19 03:55:17;;;;;;;67.43;25.50;;;;;;;2.08;100.00;101479.06;5026282;28;20034;-57
2022/12/19 03:57:50;;;;;;;66.97;26.98;;;;;;;2.22;100.00;101486.94;5016241;28;20069;-57
2022/12/19 04:00:17;;;;;;;64.47;26.40;;;;;;;2.27;100.00;101479.66;5016062;28;20030;-60
2022/12/19 04:02:47;;;;;;;66.50;26.90;;;;;;;2.40;100.00;101484.16;5019589;28;20037;-56
2022/12/19 04:05:18;;;;;;;70.10;26.57;;;;;;;2.48;100.00;101481.94;5018522;28;20038;-57
2022/12/19 04:07:44;;;;;;;62.07;25.97;;;;;;;2.51;100.00;101473.06;5020892;28;20043;-57
2022/12/19 04:10:22;;;;;;;66.13;27.37;;;;;;;2.60;100.00;101466.38;5026400;28;20034;-57
2022/12/19 04:12:57;;;;;;;67.30;26.80;;;;;;;2.62;100.00;101467.97;5023114;28;20033;-58
2022/12/19 04:15:33;;;;;;;57.60;25.50;;;;;;;2.67;100.00;101465.94;5023916;28;20108;-56
2022/12/19 04:18:04;;;;;;;62.10;25.85;;;;;;;2.73;100.00;101464.72;5026961;28;20025;-56
2022/12/19 04:20:31;;;;;;;61.27;26.27;;;;;;;2.79;100.00;101459.09;5025259;28;20044;-57
2022/12/19 04:23:38;;;;;;;59.83;25.33;;;;;;;2.80;100.00;101460.78;5031494;28;20038;-58
2022/12/19 04:26:06;;;;;;;52.77;23.93;;;;;;;2.82;100.00;101463.31;5018791;28;20049;-56
2022/12/19 04:28:44;;;;;;;56.38;24.05;;;;;;;2.79;100.00;101438.16;5030026;28;20087;-58
2022/12/19 04:31:15;;;;;;;56.67;24.25;;;;;;;2.93;100.00;101455.63;5027116;28;20069;-58
2022/12/19 04:33:40;;;;;;;54.35;23.50;;;;;;;2.96;100.00;101451.94;5019069;28;20057;-57
2022/12/19 04:36:06;;;;;;;59.85;25.58;;;;;;;3.06;100.00;101449.63;5014909;28;20044;-58
2022/12/19 04:38:32;;;;;;;53.35;24.00;;;;;;;3.04;100.00;101452.31;5024850;28;20432;-58
2022/12/19 04:40:57;;;;;;;57.78;23.67;;;;;;;3.05;100.00;101451.38;5018366;28;20099;-57
2022/12/19 04:43:22;;;;;;;54.50;24.45;;;;;;;3.06;100.00;101454.88;5026843;28;20501;-59
2022/12/19 04:45:47;;;;;;;50.28;23.17;;;;;;;3.14;100.00;101455.19;5027234;28;20060;-57
2022/12/19 04:48:13;;;;;;;48.42;22.58;;;;;;;3.13;100.00;101450.06;5015737;28;20034;-57
2022/12/19 04:50:38;;;;;;;49.50;23.58;;;;;;;3.18;100.00;101447.97;5025616;28;20030;-57
2022/12/19 04:53:05;;;;;;;54.15;23.77;;;;;;;3.27;100.00;101447.41;5023505;28;20026;-58
2022/12/19 04:55:30;;;;;;;52.20;23.60;;;;;;;3.29;100.00;101450.75;5029247;28;20042;-56
2022/12/19 04:57:55;;;;;;;52.65;23.67;;;;;;;3.31;100.00;101454.13;5027100;28;20038;-60
2022/12/19 05:00:21;;;;;;;52.50;23.38;;;;;;;3.35;100.00;101450.38;5026469;28;20794;-57
2022/12/19 05:02:46;;;;;;;47.17;22.65;;;;;;;3.41;100.00;101458.78;5027096;28;20727;-57
2022/12/19 05:05:12;;;;;;;49.78;22.45;;;;;;;3.39;100.00;101451.00;5026180;28;20029;-59
2022/12/19 05:07:37;;;;;;;46.50;21.98;;;;;;;3.44;100.00;101446.31;5022442;28;20040;-56
2022/12/19 05:10:03;;;;;;;45.15;21.48;;;;;;;3.48;100.00;101444.31;5028904;28;20038;-57
2022/12/19 05:12:28;;;;;;;49.92;22.63;;;;;;;3.51;100.00;101438.91;5030422;28;20043;-57
2022/12/19 05:14:54;;;;;;;43.88;22.20;;;;;;;3.54;100.00;101441.31;5027532;28;20121;-57
2022/12/19 05:17:19;;;;;;;44.08;22.02;;;;;;;3.53;100.00;101426.50;5017412;28;20069;-58
2022/12/19 05:19:44;;;;;;;47.15;21.83;;;;;;;3.60;100.00;101437.44;5024065;28;20040;-58
2022/12/19 05:22:10;;;;;;;47.75;22.48;;;;;;;3.61;100.00;101429.47;5025522;28;20041;-58
2022/12/19 05:24:35;;;;;;;44.70;21.52;;;;;;;3.62;100.00;101440.81;5029438;28;20064;-57
2022/12/19 05:27:00;;;;;;;48.95;22.50;;;;;;;3.67;100.00;101440.50;5026660;28;20029;-58
2022/12/19 05:29:25;;;;;;;43.17;21.48;;;;;;;3.71;100.00;101441.97;5023543;28;20029;-58
2022/12/19 05:31:51;;;;;;;46.38;21.35;;;;;;;3.72;100.00;101425.28;5023239;28;20038;-57
2022/12/19 05:34:16;;;;;;;42.42;21.17;;;;;;;3.81;100.00;101440.44;5024877;28;20037;-57
2022/12/19 05:36:41;;;;;;;40.22;20.38;;;;;;;3.85;100.00;101430.56;5028461;28;20029;-57
2022/12/19 05:39:07;;;;;;;47.78;20.15;;;;;;;3.90;100.00;101439.81;5020814;28;20042;-58
2022/12/19 05:41:32;;;;;;;42.55;20.13;;;;;;;3.95;100.00;101436.03;5019691;28;20116;-58
2022/12/19 05:43:57;;;;;;;39.90;20.15;;;;;;;3.99;100.00;101437.53;5024061;28;20076;-57
2022/12/19 05:46:23;;;;;;;40.30;21.02;;;;;;;4.03;100.00;101438.97;5024424;28;20035;-57
2022/12/19 05:48:48;;;;;;;38.33;19.50;;;;;;;4.08;100.00;101431.63;5028385;28;20037;-57
2022/12/19 05:51:14;;;;;;;36.53;19.00;;;;;;;4.11;100.00;101431.44;5020679;28;20520;-57
2022/12/19 05:53:40;;;;;;;34.33;18.10;;;;;;;4.14;100.00;101428.59;5027411;28;20068;-58
2022/12/19 05:56:19;;;;;;;35.83;18.23;;;;;;;4.14;100.00;101431.22;5029660;28;20054;-60
2022/12/19 05:58:45;;;;;;;33.05;17.75;;;;;;;4.17;100.00;101441.53;5023902;28;20052;-57
2022/12/19 06:01:17;;;;;;;33.45;17.85;;;;;;;4.13;100.00;101426.91;5014309;28;20034;-59
2022/12/19 06:03:43;;;;;;;34.25;18.15;;;;;;;4.14;100.00;101441.72;5023440;28;20064;-58
2022/12/19 06:06:11;;;;;;;31.55;17.67;;;;;;;4.23;100.00;101434.16;5021221;28;20026;-58
2022/12/19 06:08:37;;;;;;;34.53;17.90;;;;;;;4.23;100.00;101431.53;5024298;28;20018;-57
2022/12/19 06:11:04;;;;;;;34.58;17.52;;;;;;;4.22;100.00;101438.56;5022421;28;20533;-57
2022/12/19 06:13:30;;;;;;;31.42;17.20;;;;;;;4.20;100.00;101435.22;5015994;28;20042;-57
2022/12/19 06:16:00;;;;;;;30.63;17.38;;;;;;;4.24;100.00;101436.69;5028800;28;20059;-57
2022/12/19 06:18:26;;;;;;;35.78;17.42;;;;;;;4.36;100.00;101435.00;5029886;28;20120;-57
2022/12/19 06:20:56;;;;;;;32.45;16.73;;;;;;;4.39;100.00;101445.28;5026879;28;20041;-59
2022/12/19 06:23:22;;;;;;;30.60;16.70;;;;;;;4.36;100.00;101429.75;5023280;28;20098;-58
2022/12/19 06:25:47;;;;;;;28.50;16.75;;;;;;;4.40;100.00;101441.72;5027621;28;20677;-57
2022/12/19 06:28:12;;;;;;;30.23;17.08;;;;;;;4.46;100.00;101429.09;5025049;28;20033;-58
2022/12/19 06:30:38;;;;;;;31.52;16.38;;;;;;;4.47;100.00;101441.28;5020205;28;20477;-57
2022/12/19 06:33:03;;;;;;;29.48;16.40;;;;;;;4.49;100.00;101434.16;5028485;28;20033;-57
2022/12/19 06:35:28;;;;;;;31.77;16.98;;;;;;;4.55;100.00;101441.59;5026796;28;20033;-57
2022/12/19 06:37:53;;;;;;;28.63;16.27;;;;;;;4.53;100.00;101444.34;5012857;28;20034;-58
2022/12/19 06:42:21;;;;;;;30.73;15.93;;;;;;;4.59;100.00;101450.94;5020250;28;20030;-59
2022/12/19 06:43:04;;;;;;;31.83;16.65;;;;;;;4.64;100.00;101443.56;5025323;28;20053;-58
2022/12/19 06:45:30;;;;;;;30.05;16.50;;;;;;;4.62;100.00;101456.00;5024512;28;20041;-59
2022/12/19 06:47:55;;;;;;;28.85;16.27;;;;;;;4.64;100.00;101454.09;5012314;28;20037;-57
2022/12/19 06:50:20;;;;;;;29.13;16.63;;;;;;;4.61;100.00;101449.06;5022050;28;20614;-58
2022/12/19 06:52:46;;;;;;;27.88;15.48;;;;;;;4.67;100.00;101447.78;5019745;28;20029;-57
2022/12/19 06:55:12;;;;;;;28.42;15.77;;;;;;;4.69;100.00;101435.38;5034296;28;20401;-58
2022/12/19 06:57:44;;;;;;;27.40;15.77;;;;;;;4.72;100.00;101445.66;5020959;28;20133;-58
2022/12/19 07:00:14;;;;;;;29.00;16.50;;;;;;;4.76;100.00;101452.41;5024660;28;20594;-58
2022/12/19 07:02:43;;;;;;;27.77;16.05;;;;;;;4.76;100.00;101451.53;5025161;28;20029;-56
2022/12/19 07:05:10;;;;;;;29.20;16.23;;;;;;;4.71;100.00;101442.22;5028725;28;20055;-57
2022/12/19 07:07:36;;;;;;;26.23;15.65;;;;;;;4.77;100.00;101464.59;5024360;28;20073;-58
2022/12/19 07:10:04;;;;;;;28.73;16.20;;;;;;;4.77;100.00;101453.22;5026651;28;20130;-56
2022/12/19 07:12:29;;;;;;;29.20;16.38;;;;;;;4.82;100.00;101440.59;5025143;28;20072;-56
2022/12/19 07:14:54;;;;;;;32.03;16.92;;;;;;;4.82;100.00;101440.59;5021130;28;20041;-58
2022/12/19 07:17:22;;;;;;;26.95;16.13;;;;;;;4.80;100.00;101442.50;5025031;28;20481;-57
2022/12/19 07:19:53;;;;;;;26.73;16.15;;;;;;;4.84;100.00;101450.06;5028100;28;20501;-57
2022/12/19 07:22:19;;;;;;;28.10;15.75;;;;;;;4.81;100.00;101444.19;5023939;28;20021;-57
2022/12/19 07:24:45;;;;;;;28.02;15.98;;;;;;;4.86;100.00;101447.31;5025809;28;20120;-57
2022/12/19 07:27:10;;;;;;;25.52;15.65;;;;;;;4.86;100.00;101444.69;5022906;28;20029;-58
2022/12/19 07:29:36;;;;;;;24.48;15.35;;;;;;;4.87;100.00;101441.13;5020925;28;20026;-58
2022/12/19 07:32:01;;;;;;;24.95;15.30;;;;;;;4.89;100.00;101447.09;5024956;28;20040;-57
2022/12/19 07:34:26;;;;;;;26.02;15.05;;;;;;;4.93;100.00;101453.00;5025013;28;20506;-58
2022/12/19 07:36:52;;;;;;;24.95;14.93;;;;;;;4.94;100.00;101450.25;5024543;28;20034;-57
2022/12/19 07:39:17;;;;;;;25.27;14.60;;;;;;;4.90;100.00;101451.44;5025604;28;20033;-57
2022/12/19 07:41:42;;;;;;;24.95;14.18;;;;;;;4.96;100.00;101442.25;5029253;28;20032;-57
2022/12/19 07:44:08;;;;;;;24.55;14.40;;;;;;;4.93;100.00;101456.44;5025656;28;20029;-57
2022/12/19 07:46:34;;;;;;;25.30;14.30;;;;;;;4.93;100.00;101460.88;5025832;28;20038;-58
2022/12/19 07:48:59;;;;;;;23.08;13.88;;;;;;;4.88;100.00;101453.31;5027688;28;20030;-57
2022/12/19 07:51:24;;;;;;;24.77;14.48;;;;;;;4.95;100.00;101459.78;5023431;28;20454;-58
2022/12/19 07:53:50;;;;;;;23.30;13.73;;;;;;;4.96;100.00;101458.03;5026908;28;20036;-58
2022/12/19 07:56:16;;;;;;;23.23;13.40;;;;;;;4.97;100.00;101462.31;5028501;28;20053;-57
2022/12/19 07:58:41;;;;;;;24.40;12.98;;;;;;;5.01;100.00;101462.94;5021155;28;20042;-57
2022/12/19 08:01:07;;;;;;;23.27;13.15;;;;;;;5.00;100.00;101474.41;5031333;28;20171;-58
2022/12/19 08:03:32;;;;;;;21.73;13.40;;;;;;;5.03;100.00;101469.78;5020108;28;20038;-58
2022/12/19 08:05:59;;;;;;;26.00;13.18;;;;;;;5.10;100.00;101471.00;5021953;28;20624;-58
2022/12/19 08:08:25;;;;;;;21.52;12.45;;;;;;;5.10;100.00;101471.00;5030674;28;20040;-57
2022/12/19 08:10:50;;;;;;;23.65;12.85;;;;;;;5.13;100.00;101480.47;5021391;28;20033;-57
2022/12/19 08:13:16;;;;;;;19.85;11.80;;;;;;;5.15;100.00;101478.59;5016547;28;20058;-58
2022/12/19 08:15:41;;;;;;;20.35;12.38;;;;;;;5.13;100.00;101480.47;5021839;28;20048;-57
2022/12/19 08:18:06;;;;;;;19.48;11.60;;;;;;;5.16;100.00;101482.91;5027557;28;20038;-57
2022/12/19 08:20:31;;;;;;;18.85;12.00;;;;;;;5.16;100.00;101485.53;5016469;28;20038;-58
2022/12/19 08:22:57;;;;;;;19.60;12.15;;;;;;;5.23;100.00;101480.66;5026208;28;20044;-58
2022/12/19 08:25:22;;;;;;;20.63;12.07;;;;;;;5.20;100.00;101468.59;5019961;28;20025;-57
2022/12/19 08:27:47;;;;;;;19.65;11.90;;;;;;;5.25;100.00;101469.06;5028136;28;20038;-57
2022/12/19 08:30:13;;;;;;;17.98;11.60;;;;;;;5.29;100.00;101468.84;5016637;28;20026;-58
2022/12/19 08:32:39;;;;;;;22.15;12.48;;;;;;;5.31;100.00;101467.78;5022268;28;20034;-58
2022/12/19 08:35:06;;;;;;;20.65;11.65;;;;;;;5.29;100.00;101474.13;5027429;28;20484;-57
2022/12/19 08:37:31;;;;;;;19.90;11.60;;;;;;;5.32;100.00;101464.22;5025082;28;20056;-57
2022/12/19 08:39:56;;;;;;;19.13;11.80;;;;;;;5.36;100.00;101485.88;5017298;28;20520;-61
2022/12/19 08:42:22;;;;;;;18.42;11.23;;;;;;;5.35;100.00;101485.03;5011698;28;20129;-61
2022/12/19 08:44:47;;;;;;;19.67;11.45;;;;;;;5.47;100.00;101492.97;5022101;28;20025;-57
2022/12/19 08:47:12;;;;;;;19.52;11.23;;;;;;;5.51;100.00;101497.91;5016817;28;20030;-58
2022/12/19 08:49:38;;;;;;;18.92;10.32;;;;;;;5.50;100.00;101483.09;5022077;28;20108;-58
2022/12/19 08:52:03;;;;;;;20.23;11.02;;;;;;;5.50;100.00;101485.72;5022186;28;20048;-58
2022/12/19 08:54:28;;;;;;;19.30;10.70;;;;;;;5.55;100.00;101484.53;5020846;28;20469;-57
2022/12/19 08:56:53;;;;;;;17.17;10.48;;;;;;;5.54;100.00;101478.44;5025451;28;20572;-58
2022/12/19 08:59:19;;;;;;;19.60;10.65;;;;;;;5.57;100.00;101485.28;5024047;28;20030;-58
2022/12/19 09:01:44;;;;;;;19.05;10.38;;;;;;;5.59;100.00;101486.84;5019863;28;20026;-57
2022/12/19 09:04:09;;;;;;;17.38;10.15;;;;;;;5.63;100.00;101487.44;5026851;28;20032;-59
2022/12/19 09:06:35;;;;;;;16.83;9.77;;;;;;;5.62;100.00;101496.28;5024406;28;20068;-58
2022/12/19 09:09:02;;;;;;;16.55;9.55;;;;;;;5.66;100.00;101484.56;5025094;28;20041;-58
2022/12/19 09:11:28;;;;;;;18.40;9.43;;;;;;;5.72;100.00;101488.56;5022763;28;20030;-57
2022/12/19 09:13:55;;;;;;;15.82;9.48;;;;;;;5.71;100.00;101495.59;5018255;28;20092;-58
2022/12/19 09:16:23;;;;;;;15.80;9.77;;;;;;;5.78;100.00;101496.81;5023756;28;20546;-57
2022/12/19 09:18:50;;;;;;;15.50;9.60;;;;;;;5.79;100.00;101505.56;5022901;28;20054;-61
2022/12/19 09:21:18;;;;;;;16.10;9.05;;;;;;;5.82;100.00;101512.41;5015054;28;20029;-61
2022/12/19 09:23:51;;;;;;;17.02;9.27;;;;;;;5.83;100.00;101514.09;5024255;28;20037;-61
2022/12/19 09:26:16;;;;;;;;;;;;;;;5.88;100.00;101491.72;5029803;28;20037;-61
2022/12/19 09:28:43;;;;;;;14.25;9.00;;;;;;;5.90;100.00;101504.78;5025597;28;20344;-58
2022/12/19 09:31:18;;;;;;;15.82;9.27;;;;;;;5.87;100.00;101505.84;5019815;28;20477;-57
2022/12/19 09:33:44;;;;;;;14.45;9.05;;;;;;;5.89;100.00;101508.34;5015756;28;20021;-57
2022/12/19 09:36:14;;;;;;;15.70;9.38;;;;;;;5.88;100.00;101501.41;5017402;28;20096;-58
2022/12/19 09:38:40;;;;;;;15.60;9.48;;;;;;;5.87;100.00;101505.00;5013072;28;20037;-58
2022/12/19 09:41:17;;;;;;;14.68;8.45;;;;;;;5.87;100.00;101495.31;5016852;28;20037;-58
2022/12/19 09:43:59;;;;;;;15.68;9.50;;;;;;;5.97;100.00;101505.97;5028927;28;20080;-57
2022/12/19 09:46:54;;;;;;;13.25;9.18;;;;;;;6.00;100.00;101507.56;5016836;28;20404;-58
2022/12/19 09:49:34;;;;;;;16.38;8.68;;;;;;;6.02;100.00;101500.41;5012581;28;20160;-57
2022/12/19 09:52:18;;;;;;;14.07;8.88;;;;;;;6.05;100.00;101514.19;5024289;28;20037;-57
2022/12/19 09:54:54;;;;;;;14.40;9.18;;;;;;;6.08;100.00;101504.38;5020805;28;20026;-58
2022/12/19 09:57:30;;;;;;;14.32;9.25;;;;;;;6.10;100.00;101502.47;5019261;28;20026;-58
2022/12/19 10:00:00;;;;;;;14.25;8.88;;;;;;;6.12;100.00;101513.75;5011604;28;20033;-57
2022/12/19 10:02:40;;;;;;;15.68;9.55;;;;;;;6.14;100.00;101507.41;5023070;28;20108;-57
2022/12/19 10:05:25;;;;;;;14.38;8.75;;;;;;;6.17;100.00;101514.22;5026036;28;20476;-57
2022/12/19 10:07:52;;;;;;;12.60;8.48;;;;;;;6.20;100.00;101516.63;5011539;28;20045;-57
2022/12/19 10:10:37;;;;;;;14.52;8.93;;;;;;;6.17;100.00;101511.59;5027955;28;20033;-58
2022/12/19 10:13:16;;;;;;;14.40;8.38;;;;;;;6.23;100.00;101511.13;5015290;28;20473;-57
2022/12/19 10:15:46;;;;;;;12.05;8.35;;;;;;;6.28;100.00;101516.88;5026492;28;20029;-58
2022/12/19 10:18:24;;;;;;;15.00;8.25;;;;;;;6.30;100.00;101512.34;5021643;28;20128;-57
2022/12/19 10:21:05;;;;;;;13.02;8.00;;;;;;;6.35;100.00;101508.53;5019578;28;20405;-58
2022/12/19 10:23:45;;;;;;;13.85;8.48;;;;;;;6.36;100.00;101507.56;5031151;28;20041;-58
2022/12/19 10:26:38;;;;;;;12.27;7.85;;;;;;;6.37;100.00;101517.13;5024902;28;20038;-58
2022/12/19 10:29:43;;;;;;;12.38;8.07;;;;;;;6.40;100.00;101511.63;5029568;28;20033;-59
2022/12/19 10:32:35;;;;;;;11.68;7.93;;;;;;;6.41;100.00;101523.88;5018427;28;20779;-57
2022/12/19 10:35:00;;;;;;;13.35;7.80;;;;;;;6.40;100.00;101517.75;5030360;28;20041;-57
2022/12/19 10:37:38;;;;;;;12.07;7.50;;;;;;;6.40;100.00;101514.25;5031174;28;20025;-57
2022/12/19 10:40:12;;;;;;;12.45;7.43;;;;;;;6.48;100.00;101524.22;5014860;28;20441;-57
2022/12/19 10:42:49;;;;;;;13.77;7.90;;;;;;;6.41;100.00;101518.59;5029120;28;20156;-57
2022/12/19 10:45:20;;;;;;;13.90;8.13;;;;;;;6.44;100.00;101528.88;5032285;28;20084;-58
2022/12/19 10:47:48;;;;;;;11.98;7.68;;;;;;;6.44;100.00;101524.47;5017010;28;20030;-58
2022/12/19 10:50:20;;;;;;;13.70;7.97;;;;;;;6.46;100.00;101521.69;5031358;28;20057;-56
2022/12/19 10:52:52;;;;;;;13.73;7.77;;;;;;;6.49;100.00;101525.88;5027635;28;20040;-59
2022/12/19 10:55:39;;;;;;;12.70;7.67;;;;;;;6.51;100.00;101524.00;5026580;28;20316;-58
2022/12/19 10:58:29;;;;;;;11.05;7.72;;;;;;;6.48;100.00;101514.53;5028650;28;20408;-58
2022/12/19 11:01:00;;;;;;;11.02;7.55;;;;;;;6.56;100.00;101517.41;5015434;28;20099;-57
2022/12/19 11:03:26;;;;;;;12.63;7.53;;;;;;;6.52;100.00;101515.13;5021641;28;20033;-57
2022/12/19 11:05:54;;;;;;;13.52;7.90;;;;;;;6.50;100.00;101507.34;5019976;28;20440;-56
2022/12/19 11:08:25;;;;;;;11.80;7.72;;;;;;;6.49;100.00;101505.66;5026444;28;20037;-57
2022/12/19 11:11:03;;;;;;;11.40;8.07;;;;;;;6.48;100.00;101514.53;5028621;28;20030;-57
2022/12/19 11:13:41;;;;;;;12.50;7.70;;;;;;;6.45;100.00;101506.84;5030346;28;20064;-58
2022/12/19 11:16:06;;;;;;;13.05;8.05;;;;;;;6.43;100.00;101501.69;5031622;28;20144;-57
2022/12/19 11:18:36;;;;;;;12.65;7.85;;;;;;;6.42;100.00;101494.75;5033173;28;20127;-58
2022/12/19 11:21:09;;;;;;;14.27;7.85;;;;;;;6.39;100.00;101475.69;5019197;28;20121;-57
2022/12/19 11:23:35;;;;;;;12.95;8.07;;;;;;;6.43;100.00;101490.31;5026199;28;20056;-57
2022/12/19 11:26:03;;;;;;;13.15;7.90;;;;;;;6.35;100.00;101471.66;5028409;28;20037;-57
2022/12/19 11:28:33;;;;;;;13.73;8.05;;;;;;;6.39;100.00;101478.34;5025278;28;20025;-58